sensor_id;sensor_type;location;lat;lon;timestamp;P1;durP1;ratioP1;P2;durP2;ratioP2
25497;SDS011;13406;53.380;7.226;2024-02-15T00:02:02;23.40;;;13.53;;
25497;SDS011;13406;53.380;7.226;2024-02-15T00:04:27;28.03;;;14.97;;
25497;SDS011;13406;53.380;7.226;2024-02-15T00:06:53;27.60;;;14.40;;
25497;SDS011;13406;53.380;7.226;2024-02-15T00:09:19;29.00;;;15.27;;
25497;SDS011;13406;53.380;7.226;2024-02-15T00:11:44;29.37;;;14.97;;
25497;SDS011;13406;53.380;7.226;2024-02-15T00:14:10;29.27;;;14.23;;
25497;SDS011;13406;53.380;7.226;2024-02-15T00:16:35;27.10;;;15.00;;
25497;SDS011;13406;53.380;7.226;2024-02-15T00:19:00;26.67;;;15.63;;
25497;SDS011;13406;53.380;7.226;2024-02-15T00:21:26;29.50;;;14.30;;
25497;SDS011;13406;53.380;7.226;2024-02-15T00:23:52;29.33;;;16.57;;
25497;SDS011;13406;53.380;7.226;2024-02-15T00:26:20;27.50;;;15.60;;
25497;SDS011;13406;53.380;7.226;2024-02-15T00:28:46;31.23;;;16.70;;
25497;SDS011;13406;53.380;7.226;2024-02-15T00:31:13;33.30;;;17.40;;
25497;SDS011;13406;53.380;7.226;2024-02-15T00:33:38;32.03;;;16.63;;
25497;SDS011;13406;53.380;7.226;2024-02-15T00:36:04;35.00;;;17.63;;
25497;SDS011;13406;53.380;7.226;2024-02-15T00:38:32;29.47;;;16.57;;
25497;SDS011;13406;53.380;7.226;2024-02-15T00:40:57;35.87;;;17.03;;
25497;SDS011;13406;53.380;7.226;2024-02-15T00:43:24;32.03;;;17.07;;
25497;SDS011;13406;53.380;7.226;2024-02-15T00:45:50;33.43;;;17.67;;
25497;SDS011;13406;53.380;7.226;2024-02-15T00:48:18;32.67;;;16.83;;
25497;SDS011;13406;53.380;7.226;2024-02-15T00:50:43;32.47;;;17.00;;
25497;SDS011;13406;53.380;7.226;2024-02-15T00:53:09;34.40;;;17.47;;
25497;SDS011;13406;53.380;7.226;2024-02-15T00:55:34;34.13;;;16.87;;
25497;SDS011;13406;53.380;7.226;2024-02-15T00:58:00;35.97;;;17.10;;
25497;SDS011;13406;53.380;7.226;2024-02-15T01:00:25;36.77;;;17.20;;
25497;SDS011;13406;53.380;7.226;2024-02-15T01:02:51;37.30;;;19.50;;
25497;SDS011;13406;53.380;7.226;2024-02-15T01:05:18;32.67;;;18.10;;
25497;SDS011;13406;53.380;7.226;2024-02-15T01:07:43;40.43;;;18.03;;
25497;SDS011;13406;53.380;7.226;2024-02-15T01:10:09;41.17;;;19.80;;
25497;SDS011;13406;53.380;7.226;2024-02-15T01:12:34;38.17;;;17.73;;
25497;SDS011;13406;53.380;7.226;2024-02-15T01:15:00;38.47;;;17.00;;
25497;SDS011;13406;53.380;7.226;2024-02-15T01:17:26;32.60;;;17.63;;
25497;SDS011;13406;53.380;7.226;2024-02-15T01:19:51;43.87;;;19.13;;
25497;SDS011;13406;53.380;7.226;2024-02-15T01:22:18;41.23;;;18.23;;
25497;SDS011;13406;53.380;7.226;2024-02-15T01:24:44;34.73;;;17.67;;
25497;SDS011;13406;53.380;7.226;2024-02-15T01:27:10;34.40;;;17.40;;
25497;SDS011;13406;53.380;7.226;2024-02-15T01:29:35;33.53;;;17.53;;
25497;SDS011;13406;53.380;7.226;2024-02-15T01:32:01;36.57;;;18.43;;
25497;SDS011;13406;53.380;7.226;2024-02-15T01:34:27;36.03;;;19.60;;
25497;SDS011;13406;53.380;7.226;2024-02-15T01:36:53;35.10;;;17.23;;
25497;SDS011;13406;53.380;7.226;2024-02-15T01:39:18;40.17;;;17.67;;
25497;SDS011;13406;53.380;7.226;2024-02-15T01:41:47;33.70;;;18.20;;
25497;SDS011;13406;53.380;7.226;2024-02-15T01:44:15;40.40;;;19.27;;
25497;SDS011;13406;53.380;7.226;2024-02-15T01:46:43;35.23;;;19.00;;
25497;SDS011;13406;53.380;7.226;2024-02-15T01:49:08;36.57;;;18.17;;
25497;SDS011;13406;53.380;7.226;2024-02-15T01:51:34;34.80;;;17.70;;
25497;SDS011;13406;53.380;7.226;2024-02-15T01:54:02;37.20;;;18.53;;
25497;SDS011;13406;53.380;7.226;2024-02-15T01:56:28;40.60;;;21.03;;
25497;SDS011;13406;53.380;7.226;2024-02-15T01:58:55;44.23;;;18.53;;
25497;SDS011;13406;53.380;7.226;2024-02-15T02:01:22;43.87;;;18.87;;
25497;SDS011;13406;53.380;7.226;2024-02-15T02:03:47;40.63;;;18.97;;
25497;SDS011;13406;53.380;7.226;2024-02-15T02:06:13;34.07;;;17.90;;
25497;SDS011;13406;53.380;7.226;2024-02-15T02:08:39;39.77;;;19.70;;
25497;SDS011;13406;53.380;7.226;2024-02-15T02:11:04;42.43;;;19.60;;
25497;SDS011;13406;53.380;7.226;2024-02-15T02:13:30;34.13;;;18.10;;
25497;SDS011;13406;53.380;7.226;2024-02-15T02:15:55;40.27;;;17.60;;
25497;SDS011;13406;53.380;7.226;2024-02-15T02:18:21;37.73;;;18.87;;
25497;SDS011;13406;53.380;7.226;2024-02-15T02:20:49;38.60;;;18.23;;
25497;SDS011;13406;53.380;7.226;2024-02-15T02:23:15;32.00;;;17.57;;
25497;SDS011;13406;53.380;7.226;2024-02-15T02:25:43;34.30;;;17.83;;
25497;SDS011;13406;53.380;7.226;2024-02-15T02:28:09;30.10;;;17.80;;
25497;SDS011;13406;53.380;7.226;2024-02-15T02:30:35;33.30;;;16.90;;
25497;SDS011;13406;53.380;7.226;2024-02-15T02:33:01;40.03;;;19.07;;
25497;SDS011;13406;53.380;7.226;2024-02-15T02:35:27;32.50;;;16.87;;
25497;SDS011;13406;53.380;7.226;2024-02-15T02:37:55;31.70;;;18.20;;
25497;SDS011;13406;53.380;7.226;2024-02-15T02:40:21;35.93;;;18.67;;
25497;SDS011;13406;53.380;7.226;2024-02-15T02:42:51;31.97;;;17.63;;
25497;SDS011;13406;53.380;7.226;2024-02-15T02:45:18;34.47;;;18.00;;
25497;SDS011;13406;53.380;7.226;2024-02-15T02:47:45;33.87;;;16.67;;
25497;SDS011;13406;53.380;7.226;2024-02-15T02:50:12;26.77;;;16.73;;
25497;SDS011;13406;53.380;7.226;2024-02-15T02:52:39;27.67;;;16.80;;
25497;SDS011;13406;53.380;7.226;2024-02-15T02:55:05;32.53;;;18.37;;
25497;SDS011;13406;53.380;7.226;2024-02-15T02:57:34;35.87;;;17.53;;
25497;SDS011;13406;53.380;7.226;2024-02-15T03:00:05;27.65;;;16.10;;
25497;SDS011;13406;53.380;7.226;2024-02-15T03:02:33;30.57;;;16.20;;
25497;SDS011;13406;53.380;7.226;2024-02-15T03:05:05;29.37;;;16.60;;
25497;SDS011;13406;53.380;7.226;2024-02-15T03:07:33;33.60;;;16.73;;
25497;SDS011;13406;53.380;7.226;2024-02-15T03:10:00;28.20;;;14.73;;
25497;SDS011;13406;53.380;7.226;2024-02-15T03:12:39;31.33;;;14.53;;
25497;SDS011;13406;53.380;7.226;2024-02-15T03:15:05;21.67;;;13.50;;
25497;SDS011;13406;53.380;7.226;2024-02-15T03:17:36;29.80;;;14.97;;
25497;SDS011;13406;53.380;7.226;2024-02-15T03:20:08;32.13;;;15.07;;
25497;SDS011;13406;53.380;7.226;2024-02-15T03:22:54;24.63;;;13.23;;
25497;SDS011;13406;53.380;7.226;2024-02-15T03:25:20;28.40;;;14.23;;
25497;SDS011;13406;53.380;7.226;2024-02-15T03:27:48;30.40;;;12.80;;
25497;SDS011;13406;53.380;7.226;2024-02-15T03:30:18;23.47;;;13.03;;
25497;SDS011;13406;53.380;7.226;2024-02-15T03:32:48;21.50;;;12.20;;
25497;SDS011;13406;53.380;7.226;2024-02-15T03:35:16;23.13;;;12.80;;
25497;SDS011;13406;53.380;7.226;2024-02-15T03:37:42;23.23;;;11.93;;
25497;SDS011;13406;53.380;7.226;2024-02-15T03:40:08;24.57;;;11.60;;
25497;SDS011;13406;53.380;7.226;2024-02-15T03:42:35;28.50;;;12.00;;
25497;SDS011;13406;53.380;7.226;2024-02-15T03:45:02;26.80;;;11.93;;
25497;SDS011;13406;53.380;7.226;2024-02-15T03:47:28;23.63;;;12.17;;
25497;SDS011;13406;53.380;7.226;2024-02-15T03:49:56;22.27;;;11.40;;
25497;SDS011;13406;53.380;7.226;2024-02-15T03:52:23;27.10;;;12.10;;
25497;SDS011;13406;53.380;7.226;2024-02-15T03:54:48;25.70;;;11.47;;
25497;SDS011;13406;53.380;7.226;2024-02-15T03:57:14;20.17;;;10.90;;
25497;SDS011;13406;53.380;7.226;2024-02-15T03:59:41;21.37;;;10.60;;
25497;SDS011;13406;53.380;7.226;2024-02-15T04:02:07;22.10;;;10.57;;
25497;SDS011;13406;53.380;7.226;2024-02-15T04:04:37;24.27;;;11.77;;
25497;SDS011;13406;53.380;7.226;2024-02-15T04:07:06;26.50;;;10.60;;
25497;SDS011;13406;53.380;7.226;2024-02-15T04:09:32;20.43;;;10.60;;
25497;SDS011;13406;53.380;7.226;2024-02-15T04:11:58;19.63;;;10.23;;
25497;SDS011;13406;53.380;7.226;2024-02-15T04:14:23;23.57;;;10.63;;
25497;SDS011;13406;53.380;7.226;2024-02-15T04:16:49;17.73;;;9.83;;
25497;SDS011;13406;53.380;7.226;2024-02-15T04:19:14;21.43;;;10.47;;
25497;SDS011;13406;53.380;7.226;2024-02-15T04:21:40;20.07;;;10.10;;
25497;SDS011;13406;53.380;7.226;2024-02-15T04:24:06;23.33;;;10.03;;
25497;SDS011;13406;53.380;7.226;2024-02-15T04:26:31;19.93;;;10.00;;
25497;SDS011;13406;53.380;7.226;2024-02-15T04:28:58;21.13;;;10.47;;
25497;SDS011;13406;53.380;7.226;2024-02-15T04:31:24;21.07;;;10.50;;
25497;SDS011;13406;53.380;7.226;2024-02-15T04:33:53;21.43;;;9.40;;
25497;SDS011;13406;53.380;7.226;2024-02-15T04:36:19;23.30;;;9.50;;
25497;SDS011;13406;53.380;7.226;2024-02-15T04:38:48;20.50;;;10.50;;
25497;SDS011;13406;53.380;7.226;2024-02-15T04:41:18;24.77;;;9.80;;
25497;SDS011;13406;53.380;7.226;2024-02-15T04:43:48;20.10;;;9.13;;
25497;SDS011;13406;53.380;7.226;2024-02-15T04:46:14;19.43;;;10.07;;
25497;SDS011;13406;53.380;7.226;2024-02-15T04:48:40;17.07;;;9.00;;
25497;SDS011;13406;53.380;7.226;2024-02-15T04:51:09;29.00;;;10.97;;
25497;SDS011;13406;53.380;7.226;2024-02-15T04:53:38;23.10;;;10.30;;
25497;SDS011;13406;53.380;7.226;2024-02-15T04:56:05;23.33;;;9.40;;
25497;SDS011;13406;53.380;7.226;2024-02-15T04:58:36;17.73;;;8.07;;
25497;SDS011;13406;53.380;7.226;2024-02-15T05:01:03;19.07;;;9.77;;
25497;SDS011;13406;53.380;7.226;2024-02-15T05:03:30;25.33;;;10.60;;
25497;SDS011;13406;53.380;7.226;2024-02-15T05:05:59;21.57;;;8.87;;
25497;SDS011;13406;53.380;7.226;2024-02-15T05:08:25;21.90;;;8.13;;
25497;SDS011;13406;53.380;7.226;2024-02-15T05:10:51;26.83;;;9.60;;
25497;SDS011;13406;53.380;7.226;2024-02-15T05:13:21;19.40;;;8.33;;
25497;SDS011;13406;53.380;7.226;2024-02-15T05:15:47;19.67;;;8.67;;
25497;SDS011;13406;53.380;7.226;2024-02-15T05:18:13;29.87;;;10.37;;
25497;SDS011;13406;53.380;7.226;2024-02-15T05:20:38;23.50;;;8.90;;
25497;SDS011;13406;53.380;7.226;2024-02-15T05:23:05;20.50;;;11.10;;
25497;SDS011;13406;53.380;7.226;2024-02-15T05:25:31;20.53;;;9.47;;
25497;SDS011;13406;53.380;7.226;2024-02-15T05:27:58;26.23;;;11.10;;
25497;SDS011;13406;53.380;7.226;2024-02-15T05:30:24;26.87;;;10.93;;
25497;SDS011;13406;53.380;7.226;2024-02-15T05:32:50;32.23;;;12.40;;
25497;SDS011;13406;53.380;7.226;2024-02-15T05:35:17;26.77;;;13.00;;
25497;SDS011;13406;53.380;7.226;2024-02-15T05:37:43;25.87;;;12.97;;
25497;SDS011;13406;53.380;7.226;2024-02-15T05:40:09;30.63;;;12.77;;
25497;SDS011;13406;53.380;7.226;2024-02-15T05:42:40;30.43;;;13.03;;
25497;SDS011;13406;53.380;7.226;2024-02-15T05:45:43;25.40;;;13.03;;
25497;SDS011;13406;53.380;7.226;2024-02-15T05:48:04;28.40;;;12.57;;
25497;SDS011;13406;53.380;7.226;2024-02-15T05:50:32;26.63;;;12.47;;
25497;SDS011;13406;53.380;7.226;2024-02-15T05:52:57;24.27;;;13.60;;
25497;SDS011;13406;53.380;7.226;2024-02-15T05:55:24;29.13;;;13.50;;
25497;SDS011;13406;53.380;7.226;2024-02-15T05:57:51;31.97;;;13.40;;
25497;SDS011;13406;53.380;7.226;2024-02-15T06:00:16;28.80;;;14.40;;
25497;SDS011;13406;53.380;7.226;2024-02-15T06:02:43;22.67;;;13.97;;
25497;SDS011;13406;53.380;7.226;2024-02-15T06:05:09;23.17;;;14.07;;
25497;SDS011;13406;53.380;7.226;2024-02-15T06:07:35;21.50;;;14.53;;
25497;SDS011;13406;53.380;7.226;2024-02-15T06:10:01;28.80;;;14.20;;
25497;SDS011;13406;53.380;7.226;2024-02-15T06:12:28;27.07;;;14.57;;
25497;SDS011;13406;53.380;7.226;2024-02-15T06:14:54;27.30;;;14.63;;
25497;SDS011;13406;53.380;7.226;2024-02-15T06:17:20;23.93;;;13.90;;
25497;SDS011;13406;53.380;7.226;2024-02-15T06:19:45;32.23;;;16.63;;
25497;SDS011;13406;53.380;7.226;2024-02-15T06:22:11;27.17;;;17.10;;
25497;SDS011;13406;53.380;7.226;2024-02-15T06:24:37;29.87;;;18.13;;
25497;SDS011;13406;53.380;7.226;2024-02-15T06:27:03;34.73;;;19.50;;
25497;SDS011;13406;53.380;7.226;2024-02-15T06:29:29;28.47;;;17.87;;
25497;SDS011;13406;53.380;7.226;2024-02-15T06:32:13;28.70;;;19.80;;
25497;SDS011;13406;53.380;7.226;2024-02-15T06:34:57;34.10;;;19.17;;
25497;SDS011;13406;53.380;7.226;2024-02-15T06:37:43;30.50;;;19.20;;
25497;SDS011;13406;53.380;7.226;2024-02-15T06:40:27;34.20;;;21.20;;
25497;SDS011;13406;53.380;7.226;2024-02-15T06:42:53;34.30;;;20.93;;
25497;SDS011;13406;53.380;7.226;2024-02-15T06:45:19;34.63;;;21.13;;
25497;SDS011;13406;53.380;7.226;2024-02-15T06:47:45;34.13;;;22.50;;
25497;SDS011;13406;53.380;7.226;2024-02-15T06:50:11;30.70;;;21.90;;
25497;SDS011;13406;53.380;7.226;2024-02-15T06:52:38;31.73;;;21.70;;
25497;SDS011;13406;53.380;7.226;2024-02-15T06:55:06;36.27;;;23.13;;
25497;SDS011;13406;53.380;7.226;2024-02-15T06:57:33;35.20;;;23.90;;
25497;SDS011;13406;53.380;7.226;2024-02-15T07:00:03;32.93;;;22.00;;
25497;SDS011;13406;53.380;7.226;2024-02-15T07:02:35;34.43;;;22.00;;
25497;SDS011;13406;53.380;7.226;2024-02-15T07:05:01;34.90;;;23.13;;
25497;SDS011;13406;53.380;7.226;2024-02-15T07:07:28;32.83;;;21.80;;
25497;SDS011;13406;53.380;7.226;2024-02-15T07:09:54;34.10;;;23.10;;
25497;SDS011;13406;53.380;7.226;2024-02-15T07:12:19;31.80;;;22.37;;
25497;SDS011;13406;53.380;7.226;2024-02-15T07:14:46;36.77;;;24.50;;
25497;SDS011;13406;53.380;7.226;2024-02-15T07:17:12;33.03;;;23.90;;
25497;SDS011;13406;53.380;7.226;2024-02-15T07:19:40;33.33;;;25.27;;
25497;SDS011;13406;53.380;7.226;2024-02-15T07:22:07;37.20;;;23.80;;
25497;SDS011;13406;53.380;7.226;2024-02-15T07:24:33;35.83;;;23.93;;
25497;SDS011;13406;53.380;7.226;2024-02-15T07:26:59;34.63;;;24.40;;
25497;SDS011;13406;53.380;7.226;2024-02-15T07:29:24;34.93;;;24.20;;
25497;SDS011;13406;53.380;7.226;2024-02-15T07:31:50;35.80;;;24.40;;
25497;SDS011;13406;53.380;7.226;2024-02-15T07:34:15;34.30;;;23.87;;
25497;SDS011;13406;53.380;7.226;2024-02-15T07:36:42;34.23;;;24.80;;
25497;SDS011;13406;53.380;7.226;2024-02-15T07:39:08;37.37;;;25.87;;
25497;SDS011;13406;53.380;7.226;2024-02-15T07:41:37;36.47;;;25.63;;
25497;SDS011;13406;53.380;7.226;2024-02-15T07:44:03;39.57;;;26.60;;
25497;SDS011;13406;53.380;7.226;2024-02-15T07:46:29;34.40;;;24.77;;
25497;SDS011;13406;53.380;7.226;2024-02-15T07:48:55;33.83;;;23.70;;
25497;SDS011;13406;53.380;7.226;2024-02-15T07:51:21;38.47;;;25.27;;
25497;SDS011;13406;53.380;7.226;2024-02-15T07:53:47;40.37;;;24.87;;
25497;SDS011;13406;53.380;7.226;2024-02-15T07:56:14;30.93;;;24.10;;
25497;SDS011;13406;53.380;7.226;2024-02-15T07:58:41;37.37;;;25.83;;
25497;SDS011;13406;53.380;7.226;2024-02-15T08:01:16;38.00;;;24.80;;
25497;SDS011;13406;53.380;7.226;2024-02-15T08:03:41;40.03;;;24.73;;
25497;SDS011;13406;53.380;7.226;2024-02-15T08:06:11;38.60;;;25.13;;
25497;SDS011;13406;53.380;7.226;2024-02-15T08:08:40;37.13;;;25.70;;
25497;SDS011;13406;53.380;7.226;2024-02-15T08:11:07;36.60;;;25.53;;
25497;SDS011;13406;53.380;7.226;2024-02-15T08:13:46;36.80;;;24.40;;
25497;SDS011;13406;53.380;7.226;2024-02-15T08:16:15;34.97;;;23.93;;
25497;SDS011;13406;53.380;7.226;2024-02-15T08:18:41;34.17;;;24.20;;
25497;SDS011;13406;53.380;7.226;2024-02-15T08:21:08;34.50;;;23.10;;
25497;SDS011;13406;53.380;7.226;2024-02-15T08:23:35;33.87;;;23.40;;
25497;SDS011;13406;53.380;7.226;2024-02-15T08:26:01;35.10;;;24.40;;
25497;SDS011;13406;53.380;7.226;2024-02-15T08:28:29;26.87;;;21.47;;
25497;SDS011;13406;53.380;7.226;2024-02-15T08:30:55;34.50;;;24.53;;
25497;SDS011;13406;53.380;7.226;2024-02-15T08:33:24;31.57;;;21.70;;
25497;SDS011;13406;53.380;7.226;2024-02-15T08:35:53;26.70;;;22.33;;
25497;SDS011;13406;53.380;7.226;2024-02-15T08:38:20;38.57;;;23.67;;
25497;SDS011;13406;53.380;7.226;2024-02-15T08:40:46;32.30;;;22.57;;
25497;SDS011;13406;53.380;7.226;2024-02-15T08:43:12;30.43;;;22.17;;
25497;SDS011;13406;53.380;7.226;2024-02-15T08:45:39;30.77;;;21.40;;
25497;SDS011;13406;53.380;7.226;2024-02-15T08:48:04;33.30;;;21.17;;
25497;SDS011;13406;53.380;7.226;2024-02-15T08:50:30;35.10;;;21.73;;
25497;SDS011;13406;53.380;7.226;2024-02-15T08:52:55;30.97;;;21.60;;
25497;SDS011;13406;53.380;7.226;2024-02-15T08:55:21;35.03;;;20.97;;
25497;SDS011;13406;53.380;7.226;2024-02-15T08:57:51;29.47;;;19.77;;
25497;SDS011;13406;53.380;7.226;2024-02-15T09:00:17;35.23;;;22.80;;
25497;SDS011;13406;53.380;7.226;2024-02-15T09:02:43;28.43;;;20.20;;
25497;SDS011;13406;53.380;7.226;2024-02-15T09:05:09;30.00;;;21.43;;
25497;SDS011;13406;53.380;7.226;2024-02-15T09:07:35;27.70;;;20.77;;
25497;SDS011;13406;53.380;7.226;2024-02-15T09:10:05;32.93;;;22.70;;
25497;SDS011;13406;53.380;7.226;2024-02-15T09:12:32;35.90;;;20.00;;
25497;SDS011;13406;53.380;7.226;2024-02-15T09:14:57;30.83;;;20.60;;
25497;SDS011;13406;53.380;7.226;2024-02-15T09:17:23;33.40;;;21.00;;
25497;SDS011;13406;53.380;7.226;2024-02-15T09:19:49;31.37;;;21.80;;
25497;SDS011;13406;53.380;7.226;2024-02-15T09:22:14;31.30;;;20.53;;
25497;SDS011;13406;53.380;7.226;2024-02-15T09:24:40;32.70;;;21.90;;
25497;SDS011;13406;53.380;7.226;2024-02-15T09:27:07;28.53;;;20.90;;
25497;SDS011;13406;53.380;7.226;2024-02-15T09:29:33;31.97;;;21.30;;
25497;SDS011;13406;53.380;7.226;2024-02-15T09:31:58;27.60;;;20.83;;
25497;SDS011;13406;53.380;7.226;2024-02-15T09:34:27;32.00;;;21.27;;
25497;SDS011;13406;53.380;7.226;2024-02-15T09:36:52;32.20;;;22.20;;
25497;SDS011;13406;53.380;7.226;2024-02-15T09:39:17;30.20;;;21.00;;
25497;SDS011;13406;53.380;7.226;2024-02-15T09:41:43;31.13;;;19.90;;
25497;SDS011;13406;53.380;7.226;2024-02-15T09:44:09;37.60;;;22.43;;
25497;SDS011;13406;53.380;7.226;2024-02-15T09:46:35;31.93;;;21.47;;
25497;SDS011;13406;53.380;7.226;2024-02-15T09:49:07;29.50;;;19.93;;
25497;SDS011;13406;53.380;7.226;2024-02-15T09:51:33;28.50;;;21.10;;
25497;SDS011;13406;53.380;7.226;2024-02-15T09:53:59;30.67;;;19.40;;
25497;SDS011;13406;53.380;7.226;2024-02-15T09:56:26;27.07;;;17.37;;
25497;SDS011;13406;53.380;7.226;2024-02-15T09:58:54;25.73;;;15.97;;
25497;SDS011;13406;53.380;7.226;2024-02-15T10:01:22;36.43;;;18.37;;
25497;SDS011;13406;53.380;7.226;2024-02-15T10:03:50;29.60;;;18.80;;
25497;SDS011;13406;53.380;7.226;2024-02-15T10:06:16;30.27;;;18.27;;
25497;SDS011;13406;53.380;7.226;2024-02-15T10:08:43;24.97;;;17.40;;
25497;SDS011;13406;53.380;7.226;2024-02-15T10:11:09;28.77;;;17.77;;
25497;SDS011;13406;53.380;7.226;2024-02-15T10:13:35;31.00;;;18.17;;
25497;SDS011;13406;53.380;7.226;2024-02-15T10:16:16;27.10;;;18.60;;
25497;SDS011;13406;53.380;7.226;2024-02-15T10:18:44;33.23;;;19.07;;
25497;SDS011;13406;53.380;7.226;2024-02-15T10:21:25;31.97;;;19.03;;
25497;SDS011;13406;53.380;7.226;2024-02-15T10:24:06;24.97;;;16.83;;
25497;SDS011;13406;53.380;7.226;2024-02-15T10:26:32;24.80;;;16.13;;
25497;SDS011;13406;53.380;7.226;2024-02-15T10:29:09;22.73;;;16.20;;
25497;SDS011;13406;53.380;7.226;2024-02-15T10:31:36;26.37;;;17.60;;
25497;SDS011;13406;53.380;7.226;2024-02-15T10:34:13;24.30;;;17.13;;
25497;SDS011;13406;53.380;7.226;2024-02-15T10:36:39;27.37;;;18.13;;
25497;SDS011;13406;53.380;7.226;2024-02-15T10:39:11;25.57;;;17.73;;
25497;SDS011;13406;53.380;7.226;2024-02-15T10:41:44;25.43;;;17.57;;
25497;SDS011;13406;53.380;7.226;2024-02-15T10:44:17;22.53;;;15.80;;
25497;SDS011;13406;53.380;7.226;2024-02-15T10:46:49;25.37;;;17.10;;
25497;SDS011;13406;53.380;7.226;2024-02-15T10:49:20;22.83;;;15.60;;
25497;SDS011;13406;53.380;7.226;2024-02-15T10:52:04;24.93;;;15.97;;
25497;SDS011;13406;53.380;7.226;2024-02-15T10:57:06;22.70;;;16.03;;
25497;SDS011;13406;53.380;7.226;2024-02-15T10:59:35;24.13;;;15.50;;
25497;SDS011;13406;53.380;7.226;2024-02-15T11:02:03;26.77;;;16.23;;
25497;SDS011;13406;53.380;7.226;2024-02-15T11:04:42;22.20;;;15.67;;
25497;SDS011;13406;53.380;7.226;2024-02-15T11:07:09;23.73;;;14.93;;
25497;SDS011;13406;53.380;7.226;2024-02-15T11:09:36;21.67;;;15.30;;
25497;SDS011;13406;53.380;7.226;2024-02-15T11:12:05;21.97;;;15.30;;
25497;SDS011;13406;53.380;7.226;2024-02-15T11:14:31;22.07;;;15.40;;
25497;SDS011;13406;53.380;7.226;2024-02-15T11:16:58;23.70;;;14.47;;
25497;SDS011;13406;53.380;7.226;2024-02-15T11:19:43;23.63;;;14.53;;
25497;SDS011;13406;53.380;7.226;2024-02-15T11:22:16;23.13;;;13.73;;
25497;SDS011;13406;53.380;7.226;2024-02-15T11:24:48;26.00;;;15.30;;
25497;SDS011;13406;53.380;7.226;2024-02-15T11:29:52;21.43;;;13.67;;
25497;SDS011;13406;53.380;7.226;2024-02-15T11:40:16;17.80;;;12.67;;
25497;SDS011;13406;53.380;7.226;2024-02-15T11:42:42;15.33;;;11.37;;
25497;SDS011;13406;53.380;7.226;2024-02-15T11:45:08;14.37;;;11.40;;
25497;SDS011;13406;53.380;7.226;2024-02-15T11:47:37;17.57;;;12.67;;
25497;SDS011;13406;53.380;7.226;2024-02-15T11:50:08;15.93;;;11.67;;
25497;SDS011;13406;53.380;7.226;2024-02-15T11:52:40;16.00;;;10.40;;
25497;SDS011;13406;53.380;7.226;2024-02-15T11:55:07;14.23;;;10.00;;
25497;SDS011;13406;53.380;7.226;2024-02-15T11:57:38;14.13;;;9.90;;
25497;SDS011;13406;53.380;7.226;2024-02-15T12:00:26;14.07;;;9.17;;
25497;SDS011;13406;53.380;7.226;2024-02-15T12:03:10;15.77;;;9.20;;
25497;SDS011;13406;53.380;7.226;2024-02-15T12:05:56;14.40;;;8.97;;
25497;SDS011;13406;53.380;7.226;2024-02-15T12:08:43;12.67;;;9.00;;
25497;SDS011;13406;53.380;7.226;2024-02-15T12:11:28;13.43;;;8.67;;
25497;SDS011;13406;53.380;7.226;2024-02-15T12:14:13;13.50;;;9.23;;
25497;SDS011;13406;53.380;7.226;2024-02-15T12:16:59;11.37;;;7.80;;
25497;SDS011;13406;53.380;7.226;2024-02-15T12:19:44;12.30;;;8.43;;
25497;SDS011;13406;53.380;7.226;2024-02-15T12:22:09;11.43;;;7.23;;
25497;SDS011;13406;53.380;7.226;2024-02-15T12:24:35;11.57;;;7.57;;
25497;SDS011;13406;53.380;7.226;2024-02-15T12:27:01;12.73;;;8.23;;
25497;SDS011;13406;53.380;7.226;2024-02-15T12:29:28;10.87;;;8.07;;
25497;SDS011;13406;53.380;7.226;2024-02-15T12:31:54;10.07;;;7.23;;
25497;SDS011;13406;53.380;7.226;2024-02-15T12:34:20;12.27;;;8.43;;
25497;SDS011;13406;53.380;7.226;2024-02-15T12:36:45;10.27;;;8.30;;
25497;SDS011;13406;53.380;7.226;2024-02-15T12:39:14;13.60;;;8.30;;
25497;SDS011;13406;53.380;7.226;2024-02-15T12:41:50;16.60;;;8.10;;
25497;SDS011;13406;53.380;7.226;2024-02-15T12:44:18;12.23;;;8.20;;
25497;SDS011;13406;53.380;7.226;2024-02-15T12:46:53;12.83;;;7.50;;
25497;SDS011;13406;53.380;7.226;2024-02-15T12:51:49;10.50;;;7.87;;
25497;SDS011;13406;53.380;7.226;2024-02-15T12:54:19;11.10;;;7.43;;
25497;SDS011;13406;53.380;7.226;2024-02-15T12:56:46;12.47;;;8.43;;
25497;SDS011;13406;53.380;7.226;2024-02-15T12:59:13;9.70;;;7.70;;
25497;SDS011;13406;53.380;7.226;2024-02-15T13:01:39;11.43;;;7.80;;
25497;SDS011;13406;53.380;7.226;2024-02-15T13:04:05;9.73;;;7.10;;
25497;SDS011;13406;53.380;7.226;2024-02-15T13:06:33;9.07;;;5.60;;
25497;SDS011;13406;53.380;7.226;2024-02-15T13:09:01;9.77;;;6.10;;
25497;SDS011;13406;53.380;7.226;2024-02-15T13:11:28;8.10;;;5.33;;
25497;SDS011;13406;53.380;7.226;2024-02-15T13:13:54;9.43;;;5.63;;
25497;SDS011;13406;53.380;7.226;2024-02-15T13:16:20;8.97;;;5.47;;
25497;SDS011;13406;53.380;7.226;2024-02-15T13:18:48;8.60;;;4.97;;
25497;SDS011;13406;53.380;7.226;2024-02-15T13:21:14;8.03;;;5.07;;
25497;SDS011;13406;53.380;7.226;2024-02-15T13:23:39;7.20;;;4.43;;
25497;SDS011;13406;53.380;7.226;2024-02-15T13:26:05;9.40;;;4.73;;
25497;SDS011;13406;53.380;7.226;2024-02-15T13:28:30;7.00;;;4.13;;
25497;SDS011;13406;53.380;7.226;2024-02-15T13:30:56;9.10;;;4.50;;
25497;SDS011;13406;53.380;7.226;2024-02-15T13:33:21;7.80;;;4.33;;
25497;SDS011;13406;53.380;7.226;2024-02-15T13:35:47;7.33;;;4.30;;
25497;SDS011;13406;53.380;7.226;2024-02-15T13:38:14;7.10;;;4.13;;
25497;SDS011;13406;53.380;7.226;2024-02-15T13:40:48;7.10;;;4.07;;
25497;SDS011;13406;53.380;7.226;2024-02-15T13:43:17;7.80;;;4.10;;
25497;SDS011;13406;53.380;7.226;2024-02-15T13:45:44;8.47;;;3.90;;
25497;SDS011;13406;53.380;7.226;2024-02-15T13:48:10;6.93;;;3.87;;
25497;SDS011;13406;53.380;7.226;2024-02-15T13:50:38;7.67;;;3.90;;
25497;SDS011;13406;53.380;7.226;2024-02-15T13:53:05;8.97;;;3.80;;
25497;SDS011;13406;53.380;7.226;2024-02-15T13:55:30;7.13;;;3.93;;
25497;SDS011;13406;53.380;7.226;2024-02-15T13:57:56;8.87;;;4.60;;
25497;SDS011;13406;53.380;7.226;2024-02-15T14:00:22;7.57;;;4.20;;
25497;SDS011;13406;53.380;7.226;2024-02-15T14:02:54;7.70;;;4.50;;
25497;SDS011;13406;53.380;7.226;2024-02-15T14:05:24;7.37;;;4.37;;
25497;SDS011;13406;53.380;7.226;2024-02-15T14:07:54;7.37;;;3.60;;
25497;SDS011;13406;53.380;7.226;2024-02-15T14:10:30;7.70;;;4.43;;
25497;SDS011;13406;53.380;7.226;2024-02-15T14:12:56;10.17;;;4.90;;
25497;SDS011;13406;53.380;7.226;2024-02-15T14:15:26;6.93;;;4.20;;
25497;SDS011;13406;53.380;7.226;2024-02-15T14:17:52;8.63;;;4.43;;
25497;SDS011;13406;53.380;7.226;2024-02-15T14:20:18;8.80;;;4.33;;
25497;SDS011;13406;53.380;7.226;2024-02-15T14:22:44;8.60;;;4.87;;
25497;SDS011;13406;53.380;7.226;2024-02-15T14:25:14;8.63;;;4.93;;
25497;SDS011;13406;53.380;7.226;2024-02-15T14:27:42;7.50;;;4.60;;
25497;SDS011;13406;53.380;7.226;2024-02-15T14:30:08;8.60;;;5.47;;
25497;SDS011;13406;53.380;7.226;2024-02-15T14:32:52;8.80;;;5.37;;
25497;SDS011;13406;53.380;7.226;2024-02-15T14:38:00;10.77;;;5.43;;
25497;SDS011;13406;53.380;7.226;2024-02-15T14:40:30;8.57;;;5.47;;
25497;SDS011;13406;53.380;7.226;2024-02-15T14:42:56;9.53;;;5.67;;
25497;SDS011;13406;53.380;7.226;2024-02-15T14:45:21;8.20;;;5.70;;
25497;SDS011;13406;53.380;7.226;2024-02-15T14:47:47;11.43;;;6.30;;
25497;SDS011;13406;53.380;7.226;2024-02-15T14:50:13;12.37;;;6.30;;